Pagrindinis puslapis
METAR-TAF:

METAR-TAF

Oro uostai :

Niamėjus, Nigeris

platuma: 13-29N, ilguma: 002-10E, Aukštis: 223 m

Dabartinis oras

Ataskaita buvo paskelbta 1 valandą ir 41 minutes, ne 22:00 UTC
Vėjas 3 kt iš Pietvakarių
Temperatūra 32°C
Drėgmė 52%
Slėgis 1010 hPa
Matomumas 10 km arba daugiau
Mažai debesys ne aukštis 4000 ft, Liūtiniai kamuoliniai debesys.
perkūnija

METAR: DRRN 242200Z 23003KT 9999 TS FEW040CB 32/21 Q1010 BECMG 02025KT 2000 BLDU

Laikas: 00:41 (23:41 UTC)

Prognozė

Ataskaita buvo paskelbta 6 valandos ir 41 minutes, ne 17:00 UTC
Prognozė galioja nuo 24 metu 18 UTC su 25 metu 24 UTC
Vėjas 6 kt iš Pietvakarių
Matomumas: 8000 m
Tikimybė 30% :
Laikinai
nuo 25 metu 15 UTC su 25 metu 20 UTC
Mažai debesys ne aukštis 3000 ft
Mažai debesys ne aukštis 3500 ft, Liūtiniai kamuoliniai debesys.
perkūnija

TAF: DRRN 241700Z 2418/2524 22006KT 8000 NSC PROB30 TEMPO 2515/2520 TS FEW030 FEW035CB

Orai ataskaitas ir orų prognozės (METAR, TAF).

turimą stotys yra geltonos ir raudonos taškus žemėlapyje.

Perkelti pele per norėdami pamatyti stoties vardą.

Tada spustelėkite, norėdami matyti oro stebėjimo ir prognozės.

Norėdami pakeisti žemėlapį: spustelėkite ant žalios mygtukų su juodo kryžiaus žemyn,; žalią mygtuką su brūkšneliu, jei norite nutolinti; arba žalių rodyklių gretimoms žemėlapius.


METAR-TAF: